sensor_id;sensor_type;location;lat;lon;timestamp;P1;durP1;ratioP1;P2;durP2;ratioP2
69280;SDS011;56392;51.082;17.080;2024-03-08T00:04:22;39.55;;;16.58;;
69280;SDS011;56392;51.082;17.080;2024-03-08T00:09:45;40.70;;;16.90;;
69280;SDS011;56392;51.082;17.080;2024-03-08T00:15:09;43.58;;;17.45;;
69280;SDS011;56392;51.082;17.080;2024-03-08T00:20:37;44.97;;;17.10;;
69280;SDS011;56392;51.082;17.080;2024-03-08T00:26:00;40.63;;;16.20;;
69280;SDS011;56392;51.082;17.080;2024-03-08T00:31:25;41.28;;;16.75;;
69280;SDS011;56392;51.082;17.080;2024-03-08T00:36:49;47.55;;;17.27;;
69280;SDS011;56392;51.082;17.080;2024-03-08T00:42:13;40.63;;;17.30;;
69280;SDS011;56392;51.082;17.080;2024-03-08T00:47:37;43.95;;;17.85;;
69280;SDS011;56392;51.082;17.080;2024-03-08T00:53:01;40.83;;;17.03;;
69280;SDS011;56392;51.082;17.080;2024-03-08T00:58:26;42.80;;;17.30;;
69280;SDS011;56392;51.082;17.080;2024-03-08T01:03:50;46.13;;;17.83;;
69280;SDS011;56392;51.082;17.080;2024-03-08T01:09:14;43.60;;;16.97;;
69280;SDS011;56392;51.082;17.080;2024-03-08T01:14:38;42.08;;;16.08;;
69280;SDS011;56392;51.082;17.080;2024-03-08T01:20:02;43.45;;;17.45;;
69280;SDS011;56392;51.082;17.080;2024-03-08T01:25:29;43.30;;;17.13;;
69280;SDS011;56392;51.082;17.080;2024-03-08T01:30:53;40.17;;;17.25;;
69280;SDS011;56392;51.082;17.080;2024-03-08T01:36:17;44.72;;;17.67;;
69280;SDS011;56392;51.082;17.080;2024-03-08T01:41:43;47.17;;;18.80;;
69280;SDS011;56392;51.082;17.080;2024-03-08T01:47:06;43.20;;;17.02;;
69280;SDS011;56392;51.082;17.080;2024-03-08T01:52:29;43.97;;;17.17;;
69280;SDS011;56392;51.082;17.080;2024-03-08T01:57:55;42.53;;;17.43;;
69280;SDS011;56392;51.082;17.080;2024-03-08T02:03:19;46.00;;;17.95;;
69280;SDS011;56392;51.082;17.080;2024-03-08T02:08:42;46.90;;;17.43;;
69280;SDS011;56392;51.082;17.080;2024-03-08T02:14:07;40.65;;;16.02;;
69280;SDS011;56392;51.082;17.080;2024-03-08T02:19:32;45.47;;;17.08;;
69280;SDS011;56392;51.082;17.080;2024-03-08T02:24:59;44.13;;;17.33;;
69280;SDS011;56392;51.082;17.080;2024-03-08T02:30:23;48.25;;;18.45;;
69280;SDS011;56392;51.082;17.080;2024-03-08T02:35:51;48.07;;;17.07;;
69280;SDS011;56392;51.082;17.080;2024-03-08T02:41:15;46.05;;;18.40;;
69280;SDS011;56392;51.082;17.080;2024-03-08T02:46:39;47.30;;;17.55;;
69280;SDS011;56392;51.082;17.080;2024-03-08T02:52:02;42.77;;;16.80;;
69280;SDS011;56392;51.082;17.080;2024-03-08T02:57:27;45.50;;;16.88;;
69280;SDS011;56392;51.082;17.080;2024-03-08T03:02:50;46.63;;;17.20;;
69280;SDS011;56392;51.082;17.080;2024-03-08T03:08:15;45.13;;;17.70;;
69280;SDS011;56392;51.082;17.080;2024-03-08T03:13:40;44.40;;;17.10;;
69280;SDS011;56392;51.082;17.080;2024-03-08T03:19:03;45.60;;;17.53;;
69280;SDS011;56392;51.082;17.080;2024-03-08T03:24:27;44.72;;;16.77;;
69280;SDS011;56392;51.082;17.080;2024-03-08T03:29:52;50.07;;;18.33;;
69280;SDS011;56392;51.082;17.080;2024-03-08T03:35:17;39.70;;;16.27;;
69280;SDS011;56392;51.082;17.080;2024-03-08T03:40:42;44.53;;;17.73;;
69280;SDS011;56392;51.082;17.080;2024-03-08T03:46:08;50.37;;;18.73;;
69280;SDS011;56392;51.082;17.080;2024-03-08T03:51:31;45.30;;;17.70;;
69280;SDS011;56392;51.082;17.080;2024-03-08T03:56:54;46.10;;;18.20;;
69280;SDS011;56392;51.082;17.080;2024-03-08T04:02:19;45.88;;;17.10;;
69280;SDS011;56392;51.082;17.080;2024-03-08T04:07:42;40.83;;;16.48;;
69280;SDS011;56392;51.082;17.080;2024-03-08T04:13:05;45.70;;;17.80;;
69280;SDS011;56392;51.082;17.080;2024-03-08T04:18:32;44.13;;;16.85;;
69280;SDS011;56392;51.082;17.080;2024-03-08T04:23:57;42.27;;;16.63;;
69280;SDS011;56392;51.082;17.080;2024-03-08T04:29:20;45.08;;;17.48;;
69280;SDS011;56392;51.082;17.080;2024-03-08T04:34:44;42.63;;;17.40;;
69280;SDS011;56392;51.082;17.080;2024-03-08T04:40:07;46.73;;;17.70;;
69280;SDS011;56392;51.082;17.080;2024-03-08T04:45:31;45.38;;;18.52;;
69280;SDS011;56392;51.082;17.080;2024-03-08T04:50:55;47.47;;;17.53;;
69280;SDS011;56392;51.082;17.080;2024-03-08T04:56:19;42.13;;;16.25;;
69280;SDS011;56392;51.082;17.080;2024-03-08T05:01:44;42.33;;;16.88;;
69280;SDS011;56392;51.082;17.080;2024-03-08T05:07:09;50.80;;;17.37;;
69280;SDS011;56392;51.082;17.080;2024-03-08T05:12:32;42.60;;;16.77;;
69280;SDS011;56392;51.082;17.080;2024-03-08T05:17:55;39.70;;;16.53;;
69280;SDS011;56392;51.082;17.080;2024-03-08T05:23:20;42.40;;;17.27;;
69280;SDS011;56392;51.082;17.080;2024-03-08T05:28:43;41.40;;;17.25;;
69280;SDS011;56392;51.082;17.080;2024-03-08T05:34:06;37.87;;;15.77;;
69280;SDS011;56392;51.082;17.080;2024-03-08T05:39:32;43.75;;;18.05;;
69280;SDS011;56392;51.082;17.080;2024-03-08T05:44:56;38.83;;;15.77;;
69280;SDS011;56392;51.082;17.080;2024-03-08T05:50:20;43.50;;;17.38;;
69280;SDS011;56392;51.082;17.080;2024-03-08T05:55:47;41.35;;;16.55;;
69280;SDS011;56392;51.082;17.080;2024-03-08T06:01:10;40.80;;;16.40;;
69280;SDS011;56392;51.082;17.080;2024-03-08T06:06:34;36.80;;;15.93;;
69280;SDS011;56392;51.082;17.080;2024-03-08T06:12:01;41.47;;;15.77;;
69280;SDS011;56392;51.082;17.080;2024-03-08T06:17:28;39.42;;;16.67;;
69280;SDS011;56392;51.082;17.080;2024-03-08T06:22:51;42.17;;;17.20;;
69280;SDS011;56392;51.082;17.080;2024-03-08T06:28:18;42.27;;;16.33;;
69280;SDS011;56392;51.082;17.080;2024-03-08T06:33:41;46.83;;;17.10;;
69280;SDS011;56392;51.082;17.080;2024-03-08T06:39:04;45.23;;;17.40;;
69280;SDS011;56392;51.082;17.080;2024-03-08T06:44:32;43.58;;;16.40;;
69280;SDS011;56392;51.082;17.080;2024-03-08T06:49:57;43.08;;;16.05;;
69280;SDS011;56392;51.082;17.080;2024-03-08T06:55:22;38.77;;;17.73;;
69280;SDS011;56392;51.082;17.080;2024-03-08T07:00:46;39.97;;;16.45;;
69280;SDS011;56392;51.082;17.080;2024-03-08T07:06:13;46.50;;;17.57;;
69280;SDS011;56392;51.082;17.080;2024-03-08T07:11:37;42.75;;;16.15;;
69280;SDS011;56392;51.082;17.080;2024-03-08T07:17:01;38.72;;;15.73;;
69280;SDS011;56392;51.082;17.080;2024-03-08T07:22:25;40.43;;;17.57;;
69280;SDS011;56392;51.082;17.080;2024-03-08T07:27:48;36.05;;;15.85;;
69280;SDS011;56392;51.082;17.080;2024-03-08T07:33:13;38.47;;;16.10;;
69280;SDS011;56392;51.082;17.080;2024-03-08T07:38:36;34.70;;;15.50;;
69280;SDS011;56392;51.082;17.080;2024-03-08T07:43:59;40.05;;;16.65;;
69280;SDS011;56392;51.082;17.080;2024-03-08T07:49:26;40.00;;;18.20;;
69280;SDS011;56392;51.082;17.080;2024-03-08T07:54:49;31.57;;;15.77;;
69280;SDS011;56392;51.082;17.080;2024-03-08T08:00:13;37.50;;;16.85;;
69280;SDS011;56392;51.082;17.080;2024-03-08T08:05:40;35.80;;;17.10;;
69280;SDS011;56392;51.082;17.080;2024-03-08T08:11:03;40.03;;;17.90;;
69280;SDS011;56392;51.082;17.080;2024-03-08T08:16:30;36.30;;;16.80;;
69280;SDS011;56392;51.082;17.080;2024-03-08T08:21:55;40.67;;;17.38;;
69280;SDS011;56392;51.082;17.080;2024-03-08T08:27:18;35.60;;;16.23;;
69280;SDS011;56392;51.082;17.080;2024-03-08T08:32:42;39.40;;;16.57;;
69280;SDS011;56392;51.082;17.080;2024-03-08T08:38:06;36.15;;;16.98;;
69280;SDS011;56392;51.082;17.080;2024-03-08T08:43:30;37.10;;;16.83;;
69280;SDS011;56392;51.082;17.080;2024-03-08T08:48:54;34.10;;;15.30;;
69280;SDS011;56392;51.082;17.080;2024-03-08T08:54:19;34.60;;;16.25;;
69280;SDS011;56392;51.082;17.080;2024-03-08T08:59:43;30.23;;;13.82;;
69280;SDS011;56392;51.082;17.080;2024-03-08T09:05:07;34.10;;;15.67;;
69280;SDS011;56392;51.082;17.080;2024-03-08T09:10:32;33.67;;;16.30;;
69280;SDS011;56392;51.082;17.080;2024-03-08T09:15:55;37.25;;;16.55;;
69280;SDS011;56392;51.082;17.080;2024-03-08T09:21:18;34.40;;;15.43;;
69280;SDS011;56392;51.082;17.080;2024-03-08T09:26:43;37.10;;;17.83;;
69280;SDS011;56392;51.082;17.080;2024-03-08T09:32:09;36.65;;;16.58;;
69280;SDS011;56392;51.082;17.080;2024-03-08T09:37:33;37.10;;;16.67;;
69280;SDS011;56392;51.082;17.080;2024-03-08T09:42:58;29.70;;;15.13;;
69280;SDS011;56392;51.082;17.080;2024-03-08T09:48:22;34.63;;;16.00;;
69280;SDS011;56392;51.082;17.080;2024-03-08T09:53:45;31.58;;;15.80;;
69280;SDS011;56392;51.082;17.080;2024-03-08T09:59:10;30.83;;;15.27;;
69280;SDS011;56392;51.082;17.080;2024-03-08T10:05:04;28.80;;;14.15;;
69280;SDS011;56392;51.082;17.080;2024-03-08T10:10:27;32.17;;;14.45;;
69280;SDS011;56392;51.082;17.080;2024-03-08T10:15:52;32.33;;;14.37;;
69280;SDS011;56392;51.082;17.080;2024-03-08T10:21:24;27.83;;;13.57;;
69280;SDS011;56392;51.082;17.080;2024-03-08T10:26:47;27.33;;;13.10;;
69280;SDS011;56392;51.082;17.080;2024-03-08T10:32:10;27.90;;;14.00;;
69280;SDS011;56392;51.082;17.080;2024-03-08T10:37:35;25.45;;;11.63;;
69280;SDS011;56392;51.082;17.080;2024-03-08T10:43:07;26.47;;;11.47;;
69280;SDS011;56392;51.082;17.080;2024-03-08T10:48:37;25.02;;;11.52;;
69280;SDS011;56392;51.082;17.080;2024-03-08T10:54:06;20.65;;;9.57;;
69280;SDS011;56392;51.082;17.080;2024-03-08T10:59:30;21.87;;;11.30;;
69280;SDS011;56392;51.082;17.080;2024-03-08T11:04:55;20.48;;;9.60;;
69280;SDS011;56392;51.082;17.080;2024-03-08T11:10:21;22.08;;;9.82;;
69280;SDS011;56392;51.082;17.080;2024-03-08T11:15:45;18.37;;;8.67;;
69280;SDS011;56392;51.082;17.080;2024-03-08T11:21:09;24.00;;;10.33;;
69280;SDS011;56392;51.082;17.080;2024-03-08T11:26:35;19.83;;;9.23;;
69280;SDS011;56392;51.082;17.080;2024-03-08T11:32:03;20.83;;;9.00;;
69280;SDS011;56392;51.082;17.080;2024-03-08T11:37:27;18.07;;;8.30;;
69280;SDS011;56392;51.082;17.080;2024-03-08T11:42:53;17.80;;;8.80;;
69280;SDS011;56392;51.082;17.080;2024-03-08T11:48:16;22.48;;;8.82;;
69280;SDS011;56392;51.082;17.080;2024-03-08T11:53:40;20.03;;;8.57;;
69280;SDS011;56392;51.082;17.080;2024-03-08T11:59:05;21.38;;;8.90;;
69280;SDS011;56392;51.082;17.080;2024-03-08T12:04:28;18.73;;;8.43;;
69280;SDS011;56392;51.082;17.080;2024-03-08T12:15:41;21.37;;;8.73;;
69280;SDS011;56392;51.082;17.080;2024-03-08T12:21:06;20.45;;;8.90;;
69280;SDS011;56392;51.082;17.080;2024-03-08T12:26:30;20.25;;;8.50;;
69280;SDS011;56392;51.082;17.080;2024-03-08T12:31:55;22.93;;;10.60;;
69280;SDS011;56392;51.082;17.080;2024-03-08T12:37:22;19.77;;;8.82;;
69280;SDS011;56392;51.082;17.080;2024-03-08T12:42:46;16.40;;;7.45;;
69280;SDS011;56392;51.082;17.080;2024-03-08T12:48:13;21.50;;;8.93;;
69280;SDS011;56392;51.082;17.080;2024-03-08T12:53:37;18.80;;;8.57;;
69280;SDS011;56392;51.082;17.080;2024-03-08T12:59:02;20.45;;;9.05;;
69280;SDS011;56392;51.082;17.080;2024-03-08T13:04:27;18.37;;;7.60;;
69280;SDS011;56392;51.082;17.080;2024-03-08T13:09:52;20.30;;;9.60;;
69280;SDS011;56392;51.082;17.080;2024-03-08T13:15:21;20.00;;;9.07;;
69280;SDS011;56392;51.082;17.080;2024-03-08T13:20:45;19.95;;;8.35;;
69280;SDS011;56392;51.082;17.080;2024-03-08T13:26:14;20.03;;;9.07;;
69280;SDS011;56392;51.082;17.080;2024-03-08T13:31:39;20.80;;;8.88;;
69280;SDS011;56392;51.082;17.080;2024-03-08T13:37:03;19.67;;;9.32;;
69280;SDS011;56392;51.082;17.080;2024-03-08T13:42:28;21.37;;;9.67;;
69280;SDS011;56392;51.082;17.080;2024-03-08T13:47:53;17.15;;;7.70;;
69280;SDS011;56392;51.082;17.080;2024-03-08T13:53:19;26.02;;;8.82;;
69280;SDS011;56392;51.082;17.080;2024-03-08T13:58:42;22.50;;;9.10;;
69280;SDS011;56392;51.082;17.080;2024-03-08T14:04:06;20.80;;;9.03;;
69280;SDS011;56392;51.082;17.080;2024-03-08T14:09:31;20.40;;;9.68;;
69280;SDS011;56392;51.082;17.080;2024-03-08T14:14:58;21.25;;;9.32;;
69280;SDS011;56392;51.082;17.080;2024-03-08T14:20:23;21.17;;;9.23;;
69280;SDS011;56392;51.082;17.080;2024-03-08T14:25:50;18.58;;;9.25;;
69280;SDS011;56392;51.082;17.080;2024-03-08T14:31:14;18.90;;;8.77;;
69280;SDS011;56392;51.082;17.080;2024-03-08T14:36:40;19.87;;;9.33;;
69280;SDS011;56392;51.082;17.080;2024-03-08T14:42:04;21.23;;;8.73;;
69280;SDS011;56392;51.082;17.080;2024-03-08T14:47:30;21.42;;;8.70;;
69280;SDS011;56392;51.082;17.080;2024-03-08T14:52:55;20.30;;;9.67;;
69280;SDS011;56392;51.082;17.080;2024-03-08T14:58:19;19.57;;;9.00;;
69280;SDS011;56392;51.082;17.080;2024-03-08T15:03:44;19.42;;;9.27;;
69280;SDS011;56392;51.082;17.080;2024-03-08T15:09:07;21.08;;;9.32;;
69280;SDS011;56392;51.082;17.080;2024-03-08T15:14:37;22.07;;;8.80;;
69280;SDS011;56392;51.082;17.080;2024-03-08T15:20:07;19.48;;;8.82;;
69280;SDS011;56392;51.082;17.080;2024-03-08T15:25:37;22.00;;;10.23;;
69280;SDS011;56392;51.082;17.080;2024-03-08T15:31:09;21.77;;;9.87;;
69280;SDS011;56392;51.082;17.080;2024-03-08T15:36:32;21.00;;;10.00;;
69280;SDS011;56392;51.082;17.080;2024-03-08T15:41:56;21.50;;;10.07;;
69280;SDS011;56392;51.082;17.080;2024-03-08T15:47:20;25.73;;;10.57;;
69280;SDS011;56392;51.082;17.080;2024-03-08T15:52:44;21.90;;;10.10;;
69280;SDS011;56392;51.082;17.080;2024-03-08T15:58:08;24.38;;;11.27;;
69280;SDS011;56392;51.082;17.080;2024-03-08T16:03:35;29.08;;;12.98;;
69280;SDS011;56392;51.082;17.080;2024-03-08T16:08:59;30.27;;;13.80;;
69280;SDS011;56392;51.082;17.080;2024-03-08T16:14:36;35.47;;;15.48;;
69280;SDS011;56392;51.082;17.080;2024-03-08T16:20:02;36.75;;;16.48;;
69280;SDS011;56392;51.082;17.080;2024-03-08T16:25:32;39.93;;;17.33;;
69280;SDS011;56392;51.082;17.080;2024-03-08T16:30:57;37.00;;;17.60;;
69280;SDS011;56392;51.082;17.080;2024-03-08T16:36:21;39.75;;;18.65;;
69280;SDS011;56392;51.082;17.080;2024-03-08T16:41:44;41.73;;;18.97;;
69280;SDS011;56392;51.082;17.080;2024-03-08T16:47:09;43.57;;;19.30;;
69280;SDS011;56392;51.082;17.080;2024-03-08T16:52:36;49.10;;;20.00;;
69280;SDS011;56392;51.082;17.080;2024-03-08T16:58:00;52.15;;;21.20;;
69280;SDS011;56392;51.082;17.080;2024-03-08T17:03:25;55.00;;;21.90;;
69280;SDS011;56392;51.082;17.080;2024-03-08T17:08:52;55.22;;;23.48;;
69280;SDS011;56392;51.082;17.080;2024-03-08T17:14:16;59.17;;;23.73;;
69280;SDS011;56392;51.082;17.080;2024-03-08T17:19:40;62.63;;;23.70;;
69280;SDS011;56392;51.082;17.080;2024-03-08T17:25:05;58.13;;;24.20;;
69280;SDS011;56392;51.082;17.080;2024-03-08T17:30:29;60.38;;;23.10;;
69280;SDS011;56392;51.082;17.080;2024-03-08T17:35:54;58.67;;;23.57;;
69280;SDS011;56392;51.082;17.080;2024-03-08T17:41:18;68.73;;;27.03;;
69280;SDS011;56392;51.082;17.080;2024-03-08T17:46:44;77.38;;;27.92;;
69280;SDS011;56392;51.082;17.080;2024-03-08T17:52:09;68.20;;;25.27;;
69280;SDS011;56392;51.082;17.080;2024-03-08T17:57:33;37.57;;;15.80;;
69280;SDS011;56392;51.082;17.080;2024-03-08T18:02:57;35.55;;;15.98;;
69280;SDS011;56392;51.082;17.080;2024-03-08T18:08:20;38.30;;;14.60;;
69280;SDS011;56392;51.082;17.080;2024-03-08T18:13:45;37.13;;;15.30;;
69280;SDS011;56392;51.082;17.080;2024-03-08T18:19:09;38.72;;;16.05;;
69280;SDS011;56392;51.082;17.080;2024-03-08T18:24:36;36.83;;;15.23;;
69280;SDS011;56392;51.082;17.080;2024-03-08T18:30:01;37.40;;;15.87;;
69280;SDS011;56392;51.082;17.080;2024-03-08T18:35:26;42.03;;;18.03;;
69280;SDS011;56392;51.082;17.080;2024-03-08T18:40:49;41.33;;;18.50;;
69280;SDS011;56392;51.082;17.080;2024-03-08T18:46:15;40.75;;;17.08;;
69280;SDS011;56392;51.082;17.080;2024-03-08T18:51:39;38.23;;;15.97;;
69280;SDS011;56392;51.082;17.080;2024-03-08T18:57:06;42.30;;;16.65;;
69280;SDS011;56392;51.082;17.080;2024-03-08T19:02:30;42.95;;;17.17;;
69280;SDS011;56392;51.082;17.080;2024-03-08T19:07:55;39.23;;;16.50;;
69280;SDS011;56392;51.082;17.080;2024-03-08T19:13:19;40.88;;;16.85;;
69280;SDS011;56392;51.082;17.080;2024-03-08T19:18:44;40.75;;;15.85;;
69280;SDS011;56392;51.082;17.080;2024-03-08T19:24:07;41.13;;;16.70;;
69280;SDS011;56392;51.082;17.080;2024-03-08T19:29:33;43.47;;;18.30;;
69280;SDS011;56392;51.082;17.080;2024-03-08T19:34:58;48.17;;;20.70;;
69280;SDS011;56392;51.082;17.080;2024-03-08T19:40:22;51.57;;;21.70;;
69280;SDS011;56392;51.082;17.080;2024-03-08T19:45:47;62.55;;;24.67;;
69280;SDS011;56392;51.082;17.080;2024-03-08T19:51:13;55.93;;;21.93;;
69280;SDS011;56392;51.082;17.080;2024-03-08T19:56:39;53.07;;;22.10;;
69280;SDS011;56392;51.082;17.080;2024-03-08T20:02:05;54.33;;;23.00;;
69280;SDS011;56392;51.082;17.080;2024-03-08T20:07:30;59.77;;;23.53;;
69280;SDS011;56392;51.082;17.080;2024-03-08T20:12:55;59.63;;;23.53;;
69280;SDS011;56392;51.082;17.080;2024-03-08T20:18:18;63.80;;;25.63;;
69280;SDS011;56392;51.082;17.080;2024-03-08T20:23:46;57.80;;;22.77;;
69280;SDS011;56392;51.082;17.080;2024-03-08T20:29:10;60.33;;;22.63;;
69280;SDS011;56392;51.082;17.080;2024-03-08T20:34:34;63.42;;;24.67;;
69280;SDS011;56392;51.082;17.080;2024-03-08T20:39:58;57.63;;;24.67;;
69280;SDS011;56392;51.082;17.080;2024-03-08T20:45:23;58.00;;;22.87;;
69280;SDS011;56392;51.082;17.080;2024-03-08T20:50:47;55.38;;;22.73;;
69280;SDS011;56392;51.082;17.080;2024-03-08T20:56:13;55.10;;;20.10;;
69280;SDS011;56392;51.082;17.080;2024-03-08T21:01:37;56.42;;;21.33;;
69280;SDS011;56392;51.082;17.080;2024-03-08T21:07:02;52.85;;;20.55;;
69280;SDS011;56392;51.082;17.080;2024-03-08T21:12:29;49.03;;;21.40;;
69280;SDS011;56392;51.082;17.080;2024-03-08T21:17:55;51.38;;;19.02;;
69280;SDS011;56392;51.082;17.080;2024-03-08T21:23:20;53.13;;;19.80;;
69280;SDS011;56392;51.082;17.080;2024-03-08T21:28:45;47.60;;;19.17;;
69280;SDS011;56392;51.082;17.080;2024-03-08T21:34:08;51.63;;;20.10;;
69280;SDS011;56392;51.082;17.080;2024-03-08T21:39:32;48.85;;;18.40;;
69280;SDS011;56392;51.082;17.080;2024-03-08T21:45:01;52.13;;;19.57;;
69280;SDS011;56392;51.082;17.080;2024-03-08T21:50:26;48.70;;;19.80;;
69280;SDS011;56392;51.082;17.080;2024-03-08T21:55:51;52.63;;;19.30;;
69280;SDS011;56392;51.082;17.080;2024-03-08T22:01:17;51.33;;;20.10;;
69280;SDS011;56392;51.082;17.080;2024-03-08T22:06:41;58.20;;;21.50;;
69280;SDS011;56392;51.082;17.080;2024-03-08T22:12:11;57.63;;;23.43;;
69280;SDS011;56392;51.082;17.080;2024-03-08T22:17:36;56.50;;;22.00;;
69280;SDS011;56392;51.082;17.080;2024-03-08T22:22:59;58.15;;;22.40;;
69280;SDS011;56392;51.082;17.080;2024-03-08T22:28:22;58.30;;;22.00;;
69280;SDS011;56392;51.082;17.080;2024-03-08T22:33:48;55.27;;;20.70;;
69280;SDS011;56392;51.082;17.080;2024-03-08T22:39:12;57.13;;;22.95;;
69280;SDS011;56392;51.082;17.080;2024-03-08T22:44:36;56.83;;;22.20;;
69280;SDS011;56392;51.082;17.080;2024-03-08T22:50:01;64.53;;;22.70;;
69280;SDS011;56392;51.082;17.080;2024-03-08T22:55:26;64.97;;;22.85;;
69280;SDS011;56392;51.082;17.080;2024-03-08T23:00:49;60.87;;;22.90;;
69280;SDS011;56392;51.082;17.080;2024-03-08T23:06:25;54.67;;;21.43;;
69280;SDS011;56392;51.082;17.080;2024-03-08T23:11:48;59.97;;;22.98;;
69280;SDS011;56392;51.082;17.080;2024-03-08T23:17:11;56.60;;;21.90;;
69280;SDS011;56392;51.082;17.080;2024-03-08T23:22:37;57.23;;;20.97;;
69280;SDS011;56392;51.082;17.080;2024-03-08T23:28:05;60.50;;;23.58;;
69280;SDS011;56392;51.082;17.080;2024-03-08T23:33:29;63.47;;;23.70;;
69280;SDS011;56392;51.082;17.080;2024-03-08T23:38:54;62.30;;;24.67;;
69280;SDS011;56392;51.082;17.080;2024-03-08T23:44:19;62.08;;;23.35;;
69280;SDS011;56392;51.082;17.080;2024-03-08T23:49:42;70.23;;;24.80;;
69280;SDS011;56392;51.082;17.080;2024-03-08T23:55:07;68.65;;;24.92;;
